sensor_id;sensor_type;location;lat;lon;timestamp;P1;durP1;ratioP1;P2;durP2;ratioP2
7563;SDS011;3823;53.586;10.040;2024-02-16T00:00:24;7.10;;;5.45;;
7563;SDS011;3823;53.586;10.040;2024-02-16T00:02:50;8.57;;;6.00;;
7563;SDS011;3823;53.586;10.040;2024-02-16T00:05:16;9.02;;;7.05;;
7563;SDS011;3823;53.586;10.040;2024-02-16T00:07:42;12.43;;;6.65;;
7563;SDS011;3823;53.586;10.040;2024-02-16T00:10:08;7.25;;;6.47;;
7563;SDS011;3823;53.586;10.040;2024-02-16T00:12:34;6.78;;;5.95;;
7563;SDS011;3823;53.586;10.040;2024-02-16T00:15:00;8.63;;;6.65;;
7563;SDS011;3823;53.586;10.040;2024-02-16T00:17:27;6.65;;;5.93;;
7563;SDS011;3823;53.586;10.040;2024-02-16T00:19:53;15.45;;;6.47;;
7563;SDS011;3823;53.586;10.040;2024-02-16T00:22:19;9.57;;;5.47;;
7563;SDS011;3823;53.586;10.040;2024-02-16T00:24:45;7.57;;;6.07;;
7563;SDS011;3823;53.586;10.040;2024-02-16T00:27:11;6.93;;;5.90;;
7563;SDS011;3823;53.586;10.040;2024-02-16T00:29:36;8.88;;;6.07;;
7563;SDS011;3823;53.586;10.040;2024-02-16T00:32:03;7.05;;;5.90;;
7563;SDS011;3823;53.586;10.040;2024-02-16T00:34:31;9.32;;;6.15;;
7563;SDS011;3823;53.586;10.040;2024-02-16T00:36:57;7.45;;;5.47;;
7563;SDS011;3823;53.586;10.040;2024-02-16T00:39:22;6.68;;;6.07;;
7563;SDS011;3823;53.586;10.040;2024-02-16T00:41:48;5.32;;;4.88;;
7563;SDS011;3823;53.586;10.040;2024-02-16T00:44:13;5.68;;;5.18;;
7563;SDS011;3823;53.586;10.040;2024-02-16T00:46:39;5.85;;;5.35;;
7563;SDS011;3823;53.586;10.040;2024-02-16T00:49:05;7.50;;;5.05;;
7563;SDS011;3823;53.586;10.040;2024-02-16T00:51:32;7.00;;;5.55;;
7563;SDS011;3823;53.586;10.040;2024-02-16T00:53:57;6.85;;;5.07;;
7563;SDS011;3823;53.586;10.040;2024-02-16T00:56:23;6.07;;;4.90;;
7563;SDS011;3823;53.586;10.040;2024-02-16T00:58:48;6.32;;;4.88;;
7563;SDS011;3823;53.586;10.040;2024-02-16T01:01:14;5.75;;;5.00;;
7563;SDS011;3823;53.586;10.040;2024-02-16T01:03:39;7.07;;;5.00;;
7563;SDS011;3823;53.586;10.040;2024-02-16T01:06:05;8.32;;;5.35;;
7563;SDS011;3823;53.586;10.040;2024-02-16T01:08:33;5.22;;;4.72;;
7563;SDS011;3823;53.586;10.040;2024-02-16T01:10:59;9.02;;;5.25;;
7563;SDS011;3823;53.586;10.040;2024-02-16T01:13:24;4.95;;;4.45;;
7563;SDS011;3823;53.586;10.040;2024-02-16T01:15:50;6.40;;;4.90;;
7563;SDS011;3823;53.586;10.040;2024-02-16T01:18:16;7.13;;;4.43;;
7563;SDS011;3823;53.586;10.040;2024-02-16T01:20:41;16.40;;;5.57;;
7563;SDS011;3823;53.586;10.040;2024-02-16T01:23:07;6.18;;;4.55;;
7563;SDS011;3823;53.586;10.040;2024-02-16T01:25:32;6.03;;;4.70;;
7563;SDS011;3823;53.586;10.040;2024-02-16T01:27:58;5.90;;;4.90;;
7563;SDS011;3823;53.586;10.040;2024-02-16T01:30:24;6.13;;;4.38;;
7563;SDS011;3823;53.586;10.040;2024-02-16T01:32:49;6.63;;;4.35;;
7563;SDS011;3823;53.586;10.040;2024-02-16T01:35:15;4.25;;;3.83;;
7563;SDS011;3823;53.586;10.040;2024-02-16T01:37:41;5.30;;;4.18;;
7563;SDS011;3823;53.586;10.040;2024-02-16T01:40:08;6.82;;;4.03;;
7563;SDS011;3823;53.586;10.040;2024-02-16T01:42:39;9.88;;;5.10;;
7563;SDS011;3823;53.586;10.040;2024-02-16T01:45:05;6.10;;;3.83;;
7563;SDS011;3823;53.586;10.040;2024-02-16T01:47:32;6.15;;;4.88;;
7563;SDS011;3823;53.586;10.040;2024-02-16T01:49:57;7.38;;;4.97;;
7563;SDS011;3823;53.586;10.040;2024-02-16T01:52:23;5.03;;;4.50;;
7563;SDS011;3823;53.586;10.040;2024-02-16T01:54:49;7.72;;;4.32;;
7563;SDS011;3823;53.586;10.040;2024-02-16T01:57:14;4.80;;;4.30;;
7563;SDS011;3823;53.586;10.040;2024-02-16T01:59:40;5.82;;;4.45;;
7563;SDS011;3823;53.586;10.040;2024-02-16T02:02:06;6.68;;;4.15;;
7563;SDS011;3823;53.586;10.040;2024-02-16T02:04:32;4.90;;;4.50;;
7563;SDS011;3823;53.586;10.040;2024-02-16T02:06:58;5.28;;;4.63;;
7563;SDS011;3823;53.586;10.040;2024-02-16T02:09:23;6.25;;;4.63;;
7563;SDS011;3823;53.586;10.040;2024-02-16T02:11:49;7.93;;;4.63;;
7563;SDS011;3823;53.586;10.040;2024-02-16T02:14:14;10.52;;;5.32;;
7563;SDS011;3823;53.586;10.040;2024-02-16T02:16:40;5.85;;;4.90;;
7563;SDS011;3823;53.586;10.040;2024-02-16T02:19:05;5.80;;;5.13;;
7563;SDS011;3823;53.586;10.040;2024-02-16T02:21:31;4.95;;;4.35;;
7563;SDS011;3823;53.586;10.040;2024-02-16T02:23:57;4.60;;;4.20;;
7563;SDS011;3823;53.586;10.040;2024-02-16T02:26:22;9.75;;;5.35;;
7563;SDS011;3823;53.586;10.040;2024-02-16T02:28:48;7.18;;;6.43;;
7563;SDS011;3823;53.586;10.040;2024-02-16T02:31:13;5.00;;;4.60;;
7563;SDS011;3823;53.586;10.040;2024-02-16T02:33:39;8.40;;;4.53;;
7563;SDS011;3823;53.586;10.040;2024-02-16T02:36:04;8.23;;;3.95;;
7563;SDS011;3823;53.586;10.040;2024-02-16T02:38:30;4.75;;;4.28;;
7563;SDS011;3823;53.586;10.040;2024-02-16T02:40:56;5.40;;;4.82;;
7563;SDS011;3823;53.586;10.040;2024-02-16T02:43:21;5.10;;;4.60;;
7563;SDS011;3823;53.586;10.040;2024-02-16T02:45:48;5.68;;;4.00;;
7563;SDS011;3823;53.586;10.040;2024-02-16T02:48:13;5.32;;;3.72;;
7563;SDS011;3823;53.586;10.040;2024-02-16T02:50:39;8.55;;;4.45;;
7563;SDS011;3823;53.586;10.040;2024-02-16T02:53:05;6.15;;;4.07;;
7563;SDS011;3823;53.586;10.040;2024-02-16T02:55:30;5.88;;;4.45;;
7563;SDS011;3823;53.586;10.040;2024-02-16T02:57:56;5.18;;;4.15;;
7563;SDS011;3823;53.586;10.040;2024-02-16T03:00:22;5.78;;;5.10;;
7563;SDS011;3823;53.586;10.040;2024-02-16T03:02:48;7.13;;;5.28;;
7563;SDS011;3823;53.586;10.040;2024-02-16T03:05:14;7.47;;;4.15;;
7563;SDS011;3823;53.586;10.040;2024-02-16T03:07:40;8.93;;;4.93;;
7563;SDS011;3823;53.586;10.040;2024-02-16T03:10:05;4.32;;;4.03;;
7563;SDS011;3823;53.586;10.040;2024-02-16T03:12:34;4.97;;;4.35;;
7563;SDS011;3823;53.586;10.040;2024-02-16T03:14:59;4.95;;;4.55;;
7563;SDS011;3823;53.586;10.040;2024-02-16T03:17:25;8.85;;;4.70;;
7563;SDS011;3823;53.586;10.040;2024-02-16T03:19:50;6.90;;;4.60;;
7563;SDS011;3823;53.586;10.040;2024-02-16T03:22:16;6.65;;;3.90;;
7563;SDS011;3823;53.586;10.040;2024-02-16T03:24:43;6.05;;;4.75;;
7563;SDS011;3823;53.586;10.040;2024-02-16T03:27:10;4.47;;;4.07;;
7563;SDS011;3823;53.586;10.040;2024-02-16T03:29:35;7.55;;;4.40;;
7563;SDS011;3823;53.586;10.040;2024-02-16T03:32:01;5.55;;;4.38;;
7563;SDS011;3823;53.586;10.040;2024-02-16T03:34:27;5.35;;;4.20;;
7563;SDS011;3823;53.586;10.040;2024-02-16T03:36:53;5.25;;;3.88;;
7563;SDS011;3823;53.586;10.040;2024-02-16T03:39:19;8.40;;;4.50;;
7563;SDS011;3823;53.586;10.040;2024-02-16T03:41:45;4.10;;;3.72;;
7563;SDS011;3823;53.586;10.040;2024-02-16T03:44:13;7.85;;;4.80;;
7563;SDS011;3823;53.586;10.040;2024-02-16T03:46:39;9.00;;;4.60;;
7563;SDS011;3823;53.586;10.040;2024-02-16T03:49:05;4.60;;;4.18;;
7563;SDS011;3823;53.586;10.040;2024-02-16T03:51:30;10.90;;;4.55;;
7563;SDS011;3823;53.586;10.040;2024-02-16T03:53:56;7.50;;;4.95;;
7563;SDS011;3823;53.586;10.040;2024-02-16T03:56:22;5.53;;;4.63;;
7563;SDS011;3823;53.586;10.040;2024-02-16T03:58:47;5.53;;;4.63;;
7563;SDS011;3823;53.586;10.040;2024-02-16T04:01:13;6.07;;;4.13;;
7563;SDS011;3823;53.586;10.040;2024-02-16T04:03:38;4.22;;;3.83;;
7563;SDS011;3823;53.586;10.040;2024-02-16T04:06:04;8.18;;;4.13;;
7563;SDS011;3823;53.586;10.040;2024-02-16T04:08:29;3.85;;;3.55;;
7563;SDS011;3823;53.586;10.040;2024-02-16T04:10:55;4.85;;;3.83;;
7563;SDS011;3823;53.586;10.040;2024-02-16T04:13:20;4.18;;;3.67;;
7563;SDS011;3823;53.586;10.040;2024-02-16T04:15:46;5.10;;;3.78;;
7563;SDS011;3823;53.586;10.040;2024-02-16T04:18:11;5.38;;;3.83;;
7563;SDS011;3823;53.586;10.040;2024-02-16T04:20:37;3.47;;;3.15;;
7563;SDS011;3823;53.586;10.040;2024-02-16T04:23:03;6.53;;;3.72;;
7563;SDS011;3823;53.586;10.040;2024-02-16T04:25:28;9.18;;;3.67;;
7563;SDS011;3823;53.586;10.040;2024-02-16T04:27:54;4.07;;;3.70;;
7563;SDS011;3823;53.586;10.040;2024-02-16T04:30:19;5.18;;;3.03;;
7563;SDS011;3823;53.586;10.040;2024-02-16T04:32:45;6.88;;;4.13;;
7563;SDS011;3823;53.586;10.040;2024-02-16T04:35:10;3.70;;;3.05;;
7563;SDS011;3823;53.586;10.040;2024-02-16T04:37:39;3.80;;;3.50;;
7563;SDS011;3823;53.586;10.040;2024-02-16T04:40:05;7.97;;;4.20;;
7563;SDS011;3823;53.586;10.040;2024-02-16T04:42:32;6.47;;;3.55;;
7563;SDS011;3823;53.586;10.040;2024-02-16T04:44:58;6.43;;;3.30;;
7563;SDS011;3823;53.586;10.040;2024-02-16T04:47:26;6.40;;;3.03;;
7563;SDS011;3823;53.586;10.040;2024-02-16T04:49:52;8.10;;;3.55;;
7563;SDS011;3823;53.586;10.040;2024-02-16T04:52:18;3.78;;;2.85;;
7563;SDS011;3823;53.586;10.040;2024-02-16T04:54:43;6.70;;;3.67;;
7563;SDS011;3823;53.586;10.040;2024-02-16T04:57:09;6.00;;;3.58;;
7563;SDS011;3823;53.586;10.040;2024-02-16T04:59:35;6.88;;;3.40;;
7563;SDS011;3823;53.586;10.040;2024-02-16T05:02:00;3.15;;;2.85;;
7563;SDS011;3823;53.586;10.040;2024-02-16T05:04:26;4.55;;;3.40;;
7563;SDS011;3823;53.586;10.040;2024-02-16T05:06:51;3.10;;;2.80;;
7563;SDS011;3823;53.586;10.040;2024-02-16T05:09:17;3.60;;;3.30;;
7563;SDS011;3823;53.586;10.040;2024-02-16T05:11:43;4.22;;;3.53;;
7563;SDS011;3823;53.586;10.040;2024-02-16T05:14:10;3.45;;;3.13;;
7563;SDS011;3823;53.586;10.040;2024-02-16T05:16:43;6.70;;;3.17;;
7563;SDS011;3823;53.586;10.040;2024-02-16T05:19:08;3.30;;;2.60;;
7563;SDS011;3823;53.586;10.040;2024-02-16T05:21:34;4.47;;;3.00;;
7563;SDS011;3823;53.586;10.040;2024-02-16T05:24:00;9.15;;;2.80;;
7563;SDS011;3823;53.586;10.040;2024-02-16T05:26:25;6.35;;;2.65;;
7563;SDS011;3823;53.586;10.040;2024-02-16T05:28:51;7.22;;;3.28;;
7563;SDS011;3823;53.586;10.040;2024-02-16T05:31:17;4.32;;;2.65;;
7563;SDS011;3823;53.586;10.040;2024-02-16T05:33:49;3.33;;;2.78;;
7563;SDS011;3823;53.586;10.040;2024-02-16T05:36:19;4.32;;;2.97;;
7563;SDS011;3823;53.586;10.040;2024-02-16T05:38:48;3.30;;;2.35;;
7563;SDS011;3823;53.586;10.040;2024-02-16T05:41:15;4.63;;;3.05;;
7563;SDS011;3823;53.586;10.040;2024-02-16T05:43:43;2.63;;;2.42;;
7563;SDS011;3823;53.586;10.040;2024-02-16T05:46:16;3.20;;;2.83;;
7563;SDS011;3823;53.586;10.040;2024-02-16T05:48:42;4.57;;;3.22;;
7563;SDS011;3823;53.586;10.040;2024-02-16T05:51:09;3.05;;;2.80;;
7563;SDS011;3823;53.586;10.040;2024-02-16T05:53:37;5.72;;;3.20;;
7563;SDS011;3823;53.586;10.040;2024-02-16T05:56:03;4.07;;;2.63;;
7563;SDS011;3823;53.586;10.040;2024-02-16T05:58:28;4.55;;;3.17;;
7563;SDS011;3823;53.586;10.040;2024-02-16T06:00:54;2.70;;;2.30;;
7563;SDS011;3823;53.586;10.040;2024-02-16T06:03:20;4.80;;;3.20;;
7563;SDS011;3823;53.586;10.040;2024-02-16T06:05:45;7.63;;;2.83;;
7563;SDS011;3823;53.586;10.040;2024-02-16T06:08:11;4.78;;;3.28;;
7563;SDS011;3823;53.586;10.040;2024-02-16T06:10:37;3.17;;;2.42;;
7563;SDS011;3823;53.586;10.040;2024-02-16T06:13:02;3.83;;;2.58;;
7563;SDS011;3823;53.586;10.040;2024-02-16T06:15:28;9.60;;;4.88;;
7563;SDS011;3823;53.586;10.040;2024-02-16T06:17:53;3.33;;;3.00;;
7563;SDS011;3823;53.586;10.040;2024-02-16T06:20:19;5.00;;;2.95;;
7563;SDS011;3823;53.586;10.040;2024-02-16T06:22:45;3.75;;;3.00;;
7563;SDS011;3823;53.586;10.040;2024-02-16T06:25:10;3.78;;;3.38;;
7563;SDS011;3823;53.586;10.040;2024-02-16T06:27:36;5.35;;;3.38;;
7563;SDS011;3823;53.586;10.040;2024-02-16T06:30:04;4.22;;;3.30;;
7563;SDS011;3823;53.586;10.040;2024-02-16T06:32:32;8.55;;;3.88;;
7563;SDS011;3823;53.586;10.040;2024-02-16T06:34:57;6.95;;;3.05;;
7563;SDS011;3823;53.586;10.040;2024-02-16T06:37:23;4.85;;;3.17;;
7563;SDS011;3823;53.586;10.040;2024-02-16T06:39:49;4.72;;;3.05;;
7563;SDS011;3823;53.586;10.040;2024-02-16T06:42:15;6.45;;;2.92;;
7563;SDS011;3823;53.586;10.040;2024-02-16T06:44:40;4.97;;;3.28;;
7563;SDS011;3823;53.586;10.040;2024-02-16T06:47:06;6.53;;;4.07;;
7563;SDS011;3823;53.586;10.040;2024-02-16T06:49:32;6.72;;;3.03;;
7563;SDS011;3823;53.586;10.040;2024-02-16T06:51:57;9.60;;;3.03;;
7563;SDS011;3823;53.586;10.040;2024-02-16T06:54:23;9.27;;;4.50;;
7563;SDS011;3823;53.586;10.040;2024-02-16T06:56:51;6.15;;;3.22;;
7563;SDS011;3823;53.586;10.040;2024-02-16T06:59:17;5.78;;;3.60;;
7563;SDS011;3823;53.586;10.040;2024-02-16T07:01:43;7.13;;;3.35;;
7563;SDS011;3823;53.586;10.040;2024-02-16T07:04:08;3.72;;;3.00;;
7563;SDS011;3823;53.586;10.040;2024-02-16T07:06:34;3.50;;;3.20;;
7563;SDS011;3823;53.586;10.040;2024-02-16T07:09:00;5.75;;;3.40;;
7563;SDS011;3823;53.586;10.040;2024-02-16T07:11:26;3.17;;;2.88;;
7563;SDS011;3823;53.586;10.040;2024-02-16T07:13:52;4.35;;;3.63;;
7563;SDS011;3823;53.586;10.040;2024-02-16T07:16:18;3.78;;;2.85;;
7563;SDS011;3823;53.586;10.040;2024-02-16T07:18:43;4.50;;;3.00;;
7563;SDS011;3823;53.586;10.040;2024-02-16T07:21:09;10.70;;;2.83;;
7563;SDS011;3823;53.586;10.040;2024-02-16T07:23:35;11.95;;;3.60;;
7563;SDS011;3823;53.586;10.040;2024-02-16T07:26:00;3.03;;;2.72;;
7563;SDS011;3823;53.586;10.040;2024-02-16T07:28:26;5.60;;;3.83;;
7563;SDS011;3823;53.586;10.040;2024-02-16T07:30:52;3.50;;;2.92;;
7563;SDS011;3823;53.586;10.040;2024-02-16T07:33:18;4.57;;;3.10;;
7563;SDS011;3823;53.586;10.040;2024-02-16T07:35:43;11.23;;;2.92;;
7563;SDS011;3823;53.586;10.040;2024-02-16T07:38:09;9.27;;;3.33;;
7563;SDS011;3823;53.586;10.040;2024-02-16T07:40:35;9.68;;;3.33;;
7563;SDS011;3823;53.586;10.040;2024-02-16T07:43:01;3.78;;;2.97;;
7563;SDS011;3823;53.586;10.040;2024-02-16T07:45:28;3.15;;;2.20;;
7563;SDS011;3823;53.586;10.040;2024-02-16T07:47:53;8.02;;;3.28;;
7563;SDS011;3823;53.586;10.040;2024-02-16T07:50:22;11.68;;;3.05;;
7563;SDS011;3823;53.586;10.040;2024-02-16T07:52:48;9.25;;;3.10;;
7563;SDS011;3823;53.586;10.040;2024-02-16T07:55:14;4.90;;;3.75;;
7563;SDS011;3823;53.586;10.040;2024-02-16T07:57:43;5.53;;;4.25;;
7563;SDS011;3823;53.586;10.040;2024-02-16T08:00:08;7.78;;;4.00;;
7563;SDS011;3823;53.586;10.040;2024-02-16T08:02:36;3.47;;;3.15;;
7563;SDS011;3823;53.586;10.040;2024-02-16T08:05:01;6.05;;;3.25;;
7563;SDS011;3823;53.586;10.040;2024-02-16T08:07:27;6.25;;;3.45;;
7563;SDS011;3823;53.586;10.040;2024-02-16T08:09:53;5.10;;;3.35;;
7563;SDS011;3823;53.586;10.040;2024-02-16T08:12:18;3.28;;;2.97;;
7563;SDS011;3823;53.586;10.040;2024-02-16T08:14:44;6.80;;;3.45;;
7563;SDS011;3823;53.586;10.040;2024-02-16T08:17:11;6.60;;;3.17;;
7563;SDS011;3823;53.586;10.040;2024-02-16T08:19:37;4.55;;;3.13;;
7563;SDS011;3823;53.586;10.040;2024-02-16T08:22:03;7.40;;;3.97;;
7563;SDS011;3823;53.586;10.040;2024-02-16T08:24:34;3.50;;;3.13;;
7563;SDS011;3823;53.586;10.040;2024-02-16T08:27:00;5.63;;;4.45;;
7563;SDS011;3823;53.586;10.040;2024-02-16T08:29:26;4.82;;;3.22;;
7563;SDS011;3823;53.586;10.040;2024-02-16T08:31:52;4.15;;;2.63;;
7563;SDS011;3823;53.586;10.040;2024-02-16T08:34:17;3.35;;;2.85;;
7563;SDS011;3823;53.586;10.040;2024-02-16T08:36:43;4.43;;;2.83;;
7563;SDS011;3823;53.586;10.040;2024-02-16T08:39:13;3.17;;;2.83;;
7563;SDS011;3823;53.586;10.040;2024-02-16T08:41:39;3.00;;;2.70;;
7563;SDS011;3823;53.586;10.040;2024-02-16T08:44:06;2.55;;;2.35;;
7563;SDS011;3823;53.586;10.040;2024-02-16T08:46:35;5.80;;;2.30;;
7563;SDS011;3823;53.586;10.040;2024-02-16T08:49:01;2.50;;;2.28;;
7563;SDS011;3823;53.586;10.040;2024-02-16T08:51:27;2.88;;;2.60;;
7563;SDS011;3823;53.586;10.040;2024-02-16T08:53:53;5.53;;;2.65;;
7563;SDS011;3823;53.586;10.040;2024-02-16T08:56:19;3.40;;;2.47;;
7563;SDS011;3823;53.586;10.040;2024-02-16T08:58:45;4.00;;;2.70;;
7563;SDS011;3823;53.586;10.040;2024-02-16T09:01:10;4.53;;;2.65;;
7563;SDS011;3823;53.586;10.040;2024-02-16T09:03:36;5.22;;;2.85;;
7563;SDS011;3823;53.586;10.040;2024-02-16T09:06:04;3.05;;;2.38;;
7563;SDS011;3823;53.586;10.040;2024-02-16T09:08:30;3.13;;;2.30;;
7563;SDS011;3823;53.586;10.040;2024-02-16T09:11:00;3.53;;;3.22;;
7563;SDS011;3823;53.586;10.040;2024-02-16T09:13:32;3.13;;;2.60;;
7563;SDS011;3823;53.586;10.040;2024-02-16T09:15:59;4.63;;;2.83;;
7563;SDS011;3823;53.586;10.040;2024-02-16T09:18:25;5.40;;;2.92;;
7563;SDS011;3823;53.586;10.040;2024-02-16T09:20:51;5.90;;;2.85;;
7563;SDS011;3823;53.586;10.040;2024-02-16T09:23:16;3.33;;;2.53;;
7563;SDS011;3823;53.586;10.040;2024-02-16T09:25:42;4.93;;;2.58;;
7563;SDS011;3823;53.586;10.040;2024-02-16T09:28:08;4.90;;;2.33;;
7563;SDS011;3823;53.586;10.040;2024-02-16T09:30:34;4.63;;;2.55;;
7563;SDS011;3823;53.586;10.040;2024-02-16T09:33:01;3.38;;;2.63;;
7563;SDS011;3823;53.586;10.040;2024-02-16T09:35:27;5.45;;;2.63;;
7563;SDS011;3823;53.586;10.040;2024-02-16T09:37:53;3.88;;;2.30;;
7563;SDS011;3823;53.586;10.040;2024-02-16T09:40:18;4.50;;;2.55;;
7563;SDS011;3823;53.586;10.040;2024-02-16T09:42:47;3.00;;;2.70;;
7563;SDS011;3823;53.586;10.040;2024-02-16T09:45:16;4.13;;;2.90;;
7563;SDS011;3823;53.586;10.040;2024-02-16T09:47:45;5.45;;;2.22;;
7563;SDS011;3823;53.586;10.040;2024-02-16T09:50:14;2.85;;;2.65;;
7563;SDS011;3823;53.586;10.040;2024-02-16T09:52:41;3.95;;;2.90;;
7563;SDS011;3823;53.586;10.040;2024-02-16T09:55:11;5.18;;;3.20;;
7563;SDS011;3823;53.586;10.040;2024-02-16T09:57:38;4.18;;;2.17;;
7563;SDS011;3823;53.586;10.040;2024-02-16T10:00:03;4.68;;;2.03;;
7563;SDS011;3823;53.586;10.040;2024-02-16T10:02:43;4.00;;;2.63;;
7563;SDS011;3823;53.586;10.040;2024-02-16T10:05:11;3.13;;;2.53;;
7563;SDS011;3823;53.586;10.040;2024-02-16T10:07:41;2.40;;;2.15;;
7563;SDS011;3823;53.586;10.040;2024-02-16T10:10:19;3.03;;;2.55;;
7563;SDS011;3823;53.586;10.040;2024-02-16T10:12:48;3.38;;;2.63;;
7563;SDS011;3823;53.586;10.040;2024-02-16T10:15:21;4.85;;;2.88;;
7563;SDS011;3823;53.586;10.040;2024-02-16T10:17:57;2.13;;;1.92;;
7563;SDS011;3823;53.586;10.040;2024-02-16T10:20:32;6.35;;;3.40;;
7563;SDS011;3823;53.586;10.040;2024-02-16T10:23:05;6.20;;;2.92;;
7563;SDS011;3823;53.586;10.040;2024-02-16T10:25:31;4.55;;;2.28;;
7563;SDS011;3823;53.586;10.040;2024-02-16T10:27:57;2.17;;;2.00;;
7563;SDS011;3823;53.586;10.040;2024-02-16T10:30:26;3.13;;;2.53;;
7563;SDS011;3823;53.586;10.040;2024-02-16T10:32:55;4.38;;;2.47;;
7563;SDS011;3823;53.586;10.040;2024-02-16T10:35:20;8.32;;;3.72;;
7563;SDS011;3823;53.586;10.040;2024-02-16T10:37:47;2.92;;;2.03;;
7563;SDS011;3823;53.586;10.040;2024-02-16T10:40:13;3.00;;;2.00;;
7563;SDS011;3823;53.586;10.040;2024-02-16T10:42:43;2.88;;;2.45;;
7563;SDS011;3823;53.586;10.040;2024-02-16T10:45:14;2.47;;;2.28;;
7563;SDS011;3823;53.586;10.040;2024-02-16T10:47:40;11.25;;;2.80;;
7563;SDS011;3823;53.586;10.040;2024-02-16T10:50:06;2.97;;;2.35;;
7563;SDS011;3823;53.586;10.040;2024-02-16T10:52:32;2.38;;;1.85;;
7563;SDS011;3823;53.586;10.040;2024-02-16T10:54:59;4.38;;;2.83;;
7563;SDS011;3823;53.586;10.040;2024-02-16T10:57:25;2.97;;;1.98;;
7563;SDS011;3823;53.586;10.040;2024-02-16T10:59:52;5.93;;;2.22;;
7563;SDS011;3823;53.586;10.040;2024-02-16T11:02:19;3.20;;;2.88;;
7563;SDS011;3823;53.586;10.040;2024-02-16T11:04:45;7.25;;;2.80;;
7563;SDS011;3823;53.586;10.040;2024-02-16T11:07:16;4.55;;;2.70;;
7563;SDS011;3823;53.586;10.040;2024-02-16T11:09:43;2.78;;;2.35;;
7563;SDS011;3823;53.586;10.040;2024-02-16T11:12:11;8.93;;;3.65;;
7563;SDS011;3823;53.586;10.040;2024-02-16T11:14:42;3.70;;;3.20;;
7563;SDS011;3823;53.586;10.040;2024-02-16T11:17:10;3.85;;;2.45;;
7563;SDS011;3823;53.586;10.040;2024-02-16T11:19:37;7.45;;;2.47;;
7563;SDS011;3823;53.586;10.040;2024-02-16T11:22:05;3.13;;;2.78;;
7563;SDS011;3823;53.586;10.040;2024-02-16T11:24:36;6.43;;;2.40;;
7563;SDS011;3823;53.586;10.040;2024-02-16T11:27:02;7.00;;;2.17;;
7563;SDS011;3823;53.586;10.040;2024-02-16T11:29:32;4.07;;;2.47;;
7563;SDS011;3823;53.586;10.040;2024-02-16T11:32:03;2.58;;;1.85;;
7563;SDS011;3823;53.586;10.040;2024-02-16T11:34:30;2.25;;;2.05;;
7563;SDS011;3823;53.586;10.040;2024-02-16T11:36:58;6.10;;;1.90;;
7563;SDS011;3823;53.586;10.040;2024-02-16T11:39:25;3.17;;;2.08;;
7563;SDS011;3823;53.586;10.040;2024-02-16T11:44:33;4.47;;;2.45;;
7563;SDS011;3823;53.586;10.040;2024-02-16T11:47:00;3.13;;;2.40;;
7563;SDS011;3823;53.586;10.040;2024-02-16T11:49:28;2.75;;;1.90;;
7563;SDS011;3823;53.586;10.040;2024-02-16T11:51:54;2.58;;;2.35;;
7563;SDS011;3823;53.586;10.040;2024-02-16T11:54:20;3.72;;;2.20;;
7563;SDS011;3823;53.586;10.040;2024-02-16T11:56:46;5.53;;;3.00;;
7563;SDS011;3823;53.586;10.040;2024-02-16T11:59:16;2.53;;;2.33;;
7563;SDS011;3823;53.586;10.040;2024-02-16T12:01:52;3.72;;;1.95;;
7563;SDS011;3823;53.586;10.040;2024-02-16T12:04:28;4.38;;;2.88;;
7563;SDS011;3823;53.586;10.040;2024-02-16T12:06:55;3.45;;;2.45;;
7563;SDS011;3823;53.586;10.040;2024-02-16T12:09:23;3.58;;;2.00;;
7563;SDS011;3823;53.586;10.040;2024-02-16T12:11:49;3.03;;;2.72;;
7563;SDS011;3823;53.586;10.040;2024-02-16T12:14:16;4.93;;;2.20;;
7563;SDS011;3823;53.586;10.040;2024-02-16T12:16:42;3.25;;;2.95;;
7563;SDS011;3823;53.586;10.040;2024-02-16T12:19:11;5.00;;;2.47;;
7563;SDS011;3823;53.586;10.040;2024-02-16T12:21:38;3.05;;;2.50;;
7563;SDS011;3823;53.586;10.040;2024-02-16T12:24:03;3.80;;;2.85;;
7563;SDS011;3823;53.586;10.040;2024-02-16T12:26:29;9.27;;;2.72;;
7563;SDS011;3823;53.586;10.040;2024-02-16T12:28:55;4.22;;;2.75;;
7563;SDS011;3823;53.586;10.040;2024-02-16T12:31:20;4.18;;;2.67;;
7563;SDS011;3823;53.586;10.040;2024-02-16T12:33:46;5.40;;;2.92;;
7563;SDS011;3823;53.586;10.040;2024-02-16T12:36:12;4.28;;;2.72;;
7563;SDS011;3823;53.586;10.040;2024-02-16T12:38:39;4.18;;;2.88;;
7563;SDS011;3823;53.586;10.040;2024-02-16T12:41:05;3.92;;;3.03;;
7563;SDS011;3823;53.586;10.040;2024-02-16T12:43:31;4.35;;;2.83;;
7563;SDS011;3823;53.586;10.040;2024-02-16T12:45:57;5.20;;;2.97;;
7563;SDS011;3823;53.586;10.040;2024-02-16T12:48:24;3.97;;;3.55;;
7563;SDS011;3823;53.586;10.040;2024-02-16T12:50:50;9.10;;;3.85;;
7563;SDS011;3823;53.586;10.040;2024-02-16T12:53:17;5.13;;;3.80;;
7563;SDS011;3823;53.586;10.040;2024-02-16T12:55:43;3.63;;;3.22;;
7563;SDS011;3823;53.586;10.040;2024-02-16T12:58:09;4.28;;;3.30;;
7563;SDS011;3823;53.586;10.040;2024-02-16T13:00:34;4.40;;;3.40;;
7563;SDS011;3823;53.586;10.040;2024-02-16T13:03:00;3.65;;;3.35;;
7563;SDS011;3823;53.586;10.040;2024-02-16T13:05:26;12.05;;;4.38;;
7563;SDS011;3823;53.586;10.040;2024-02-16T13:07:55;4.95;;;3.40;;
7563;SDS011;3823;53.586;10.040;2024-02-16T13:10:21;4.35;;;3.63;;
7563;SDS011;3823;53.586;10.040;2024-02-16T13:12:49;5.22;;;3.22;;
7563;SDS011;3823;53.586;10.040;2024-02-16T13:15:15;3.33;;;3.05;;
7563;SDS011;3823;53.586;10.040;2024-02-16T13:17:41;12.38;;;4.03;;
7563;SDS011;3823;53.586;10.040;2024-02-16T13:20:06;8.75;;;4.10;;
7563;SDS011;3823;53.586;10.040;2024-02-16T13:22:34;6.97;;;4.07;;
7563;SDS011;3823;53.586;10.040;2024-02-16T13:25:01;5.93;;;3.20;;
7563;SDS011;3823;53.586;10.040;2024-02-16T13:27:28;5.03;;;3.15;;
7563;SDS011;3823;53.586;10.040;2024-02-16T13:29:53;8.90;;;3.63;;
7563;SDS011;3823;53.586;10.040;2024-02-16T13:32:19;4.82;;;4.35;;
7563;SDS011;3823;53.586;10.040;2024-02-16T13:34:44;4.07;;;3.78;;
7563;SDS011;3823;53.586;10.040;2024-02-16T13:37:10;6.97;;;3.63;;
7563;SDS011;3823;53.586;10.040;2024-02-16T13:39:36;6.10;;;3.53;;
7563;SDS011;3823;53.586;10.040;2024-02-16T13:42:01;3.90;;;3.45;;
7563;SDS011;3823;53.586;10.040;2024-02-16T13:44:27;5.65;;;3.58;;
7563;SDS011;3823;53.586;10.040;2024-02-16T13:46:52;7.30;;;4.15;;
7563;SDS011;3823;53.586;10.040;2024-02-16T13:49:18;3.92;;;3.63;;
7563;SDS011;3823;53.586;10.040;2024-02-16T13:51:43;4.20;;;3.80;;
7563;SDS011;3823;53.586;10.040;2024-02-16T13:56:36;5.38;;;3.58;;
7563;SDS011;3823;53.586;10.040;2024-02-16T13:59:03;10.57;;;4.18;;
7563;SDS011;3823;53.586;10.040;2024-02-16T14:01:29;4.38;;;3.95;;
7563;SDS011;3823;53.586;10.040;2024-02-16T14:03:56;5.82;;;3.85;;
7563;SDS011;3823;53.586;10.040;2024-02-16T14:06:21;7.50;;;4.50;;
7563;SDS011;3823;53.586;10.040;2024-02-16T14:08:47;6.40;;;4.88;;
7563;SDS011;3823;53.586;10.040;2024-02-16T14:11:14;5.43;;;4.05;;
7563;SDS011;3823;53.586;10.040;2024-02-16T14:13:39;4.07;;;3.67;;
7563;SDS011;3823;53.586;10.040;2024-02-16T14:16:05;4.85;;;4.43;;
7563;SDS011;3823;53.586;10.040;2024-02-16T14:18:31;4.18;;;3.75;;
7563;SDS011;3823;53.586;10.040;2024-02-16T14:20:57;7.70;;;4.65;;
7563;SDS011;3823;53.586;10.040;2024-02-16T14:23:22;4.97;;;4.03;;
7563;SDS011;3823;53.586;10.040;2024-02-16T14:25:48;6.07;;;3.97;;
7563;SDS011;3823;53.586;10.040;2024-02-16T14:28:13;5.10;;;4.10;;
7563;SDS011;3823;53.586;10.040;2024-02-16T14:30:39;8.10;;;4.50;;
7563;SDS011;3823;53.586;10.040;2024-02-16T14:33:06;7.78;;;4.63;;
7563;SDS011;3823;53.586;10.040;2024-02-16T14:35:32;5.15;;;4.35;;
7563;SDS011;3823;53.586;10.040;2024-02-16T14:38:01;6.55;;;4.60;;
7563;SDS011;3823;53.586;10.040;2024-02-16T14:40:27;4.45;;;4.05;;
7563;SDS011;3823;53.586;10.040;2024-02-16T14:42:52;6.13;;;4.80;;
7563;SDS011;3823;53.586;10.040;2024-02-16T14:45:18;5.65;;;5.05;;
7563;SDS011;3823;53.586;10.040;2024-02-16T14:47:45;5.90;;;4.95;;
7563;SDS011;3823;53.586;10.040;2024-02-16T14:50:11;7.47;;;5.53;;
7563;SDS011;3823;53.586;10.040;2024-02-16T14:52:38;8.25;;;5.05;;
7563;SDS011;3823;53.586;10.040;2024-02-16T14:55:04;7.95;;;5.47;;
7563;SDS011;3823;53.586;10.040;2024-02-16T14:57:35;7.72;;;5.53;;
7563;SDS011;3823;53.586;10.040;2024-02-16T15:00:05;7.72;;;5.55;;